sensor_id;sensor_type;location;lat;lon;timestamp;P1;durP1;ratioP1;P2;durP2;ratioP2
8435;SDS011;4255;48.730;9.156;2023-09-07T00:01:25;7.00;;;6.30;;
8435;SDS011;4255;48.730;9.156;2023-09-07T00:03:51;9.63;;;6.70;;
8435;SDS011;4255;48.730;9.156;2023-09-07T00:06:16;7.50;;;6.80;;
8435;SDS011;4255;48.730;9.156;2023-09-07T00:08:43;7.30;;;6.60;;
8435;SDS011;4255;48.730;9.156;2023-09-07T00:11:09;7.30;;;6.60;;
8435;SDS011;4255;48.730;9.156;2023-09-07T00:13:35;6.00;;;5.50;;
8435;SDS011;4255;48.730;9.156;2023-09-07T00:16:02;7.00;;;6.40;;
8435;SDS011;4255;48.730;9.156;2023-09-07T00:18:29;9.10;;;6.67;;
8435;SDS011;4255;48.730;9.156;2023-09-07T00:20:55;11.60;;;6.70;;
8435;SDS011;4255;48.730;9.156;2023-09-07T00:23:21;7.53;;;6.83;;
8435;SDS011;4255;48.730;9.156;2023-09-07T00:25:47;6.87;;;6.27;;
8435;SDS011;4255;48.730;9.156;2023-09-07T00:28:13;9.40;;;5.23;;
8435;SDS011;4255;48.730;9.156;2023-09-07T00:30:39;6.97;;;6.33;;
8435;SDS011;4255;48.730;9.156;2023-09-07T00:33:05;7.60;;;6.50;;
8435;SDS011;4255;48.730;9.156;2023-09-07T00:35:32;6.07;;;5.47;;
8435;SDS011;4255;48.730;9.156;2023-09-07T00:37:57;6.43;;;5.90;;
8435;SDS011;4255;48.730;9.156;2023-09-07T00:40:23;7.80;;;6.10;;
8435;SDS011;4255;48.730;9.156;2023-09-07T00:42:50;6.83;;;6.27;;
8435;SDS011;4255;48.730;9.156;2023-09-07T00:45:16;6.60;;;6.00;;
8435;SDS011;4255;48.730;9.156;2023-09-07T00:47:41;6.00;;;5.40;;
8435;SDS011;4255;48.730;9.156;2023-09-07T00:50:07;8.43;;;6.07;;
8435;SDS011;4255;48.730;9.156;2023-09-07T00:52:34;8.17;;;5.80;;
8435;SDS011;4255;48.730;9.156;2023-09-07T00:55:01;6.77;;;5.47;;
8435;SDS011;4255;48.730;9.156;2023-09-07T00:57:29;8.67;;;6.00;;
8435;SDS011;4255;48.730;9.156;2023-09-07T00:59:55;7.33;;;6.60;;
8435;SDS011;4255;48.730;9.156;2023-09-07T01:02:20;6.37;;;5.77;;
8435;SDS011;4255;48.730;9.156;2023-09-07T01:04:46;6.93;;;6.23;;
8435;SDS011;4255;48.730;9.156;2023-09-07T01:07:17;7.60;;;6.90;;
8435;SDS011;4255;48.730;9.156;2023-09-07T01:09:47;8.00;;;6.50;;
8435;SDS011;4255;48.730;9.156;2023-09-07T01:12:16;8.83;;;5.93;;
8435;SDS011;4255;48.730;9.156;2023-09-07T01:14:41;6.87;;;6.17;;
8435;SDS011;4255;48.730;9.156;2023-09-07T01:17:08;7.20;;;6.00;;
8435;SDS011;4255;48.730;9.156;2023-09-07T01:19:45;6.90;;;6.00;;
8435;SDS011;4255;48.730;9.156;2023-09-07T01:22:11;8.53;;;6.27;;
8435;SDS011;4255;48.730;9.156;2023-09-07T01:24:39;6.57;;;5.97;;
8435;SDS011;4255;48.730;9.156;2023-09-07T01:27:06;7.20;;;6.60;;
8435;SDS011;4255;48.730;9.156;2023-09-07T01:29:32;5.93;;;5.30;;
8435;SDS011;4255;48.730;9.156;2023-09-07T01:31:58;7.33;;;6.23;;
8435;SDS011;4255;48.730;9.156;2023-09-07T01:34:24;7.10;;;6.00;;
8435;SDS011;4255;48.730;9.156;2023-09-07T01:36:50;6.37;;;5.87;;
8435;SDS011;4255;48.730;9.156;2023-09-07T01:39:15;6.20;;;5.60;;
8435;SDS011;4255;48.730;9.156;2023-09-07T01:41:42;12.43;;;6.40;;
8435;SDS011;4255;48.730;9.156;2023-09-07T01:44:08;10.40;;;5.77;;
8435;SDS011;4255;48.730;9.156;2023-09-07T01:46:34;6.93;;;6.33;;
8435;SDS011;4255;48.730;9.156;2023-09-07T01:49:01;7.17;;;5.43;;
8435;SDS011;4255;48.730;9.156;2023-09-07T01:51:27;7.90;;;6.17;;
8435;SDS011;4255;48.730;9.156;2023-09-07T01:53:53;6.20;;;5.60;;
8435;SDS011;4255;48.730;9.156;2023-09-07T01:56:19;6.20;;;5.70;;
8435;SDS011;4255;48.730;9.156;2023-09-07T01:58:44;6.80;;;6.13;;
8435;SDS011;4255;48.730;9.156;2023-09-07T02:04:05;9.93;;;6.47;;
8435;SDS011;4255;48.730;9.156;2023-09-07T02:06:31;8.07;;;6.70;;
8435;SDS011;4255;48.730;9.156;2023-09-07T02:08:57;6.50;;;5.77;;
8435;SDS011;4255;48.730;9.156;2023-09-07T02:11:22;8.40;;;6.13;;
8435;SDS011;4255;48.730;9.156;2023-09-07T02:13:48;13.30;;;6.40;;
8435;SDS011;4255;48.730;9.156;2023-09-07T02:16:14;6.50;;;5.90;;
8435;SDS011;4255;48.730;9.156;2023-09-07T02:18:40;8.73;;;6.30;;
8435;SDS011;4255;48.730;9.156;2023-09-07T02:21:08;6.63;;;6.03;;
8435;SDS011;4255;48.730;9.156;2023-09-07T02:23:34;7.33;;;6.40;;
8435;SDS011;4255;48.730;9.156;2023-09-07T02:26:04;10.07;;;6.87;;
8435;SDS011;4255;48.730;9.156;2023-09-07T02:28:30;7.00;;;6.30;;
8435;SDS011;4255;48.730;9.156;2023-09-07T02:31:02;7.77;;;7.07;;
8435;SDS011;4255;48.730;9.156;2023-09-07T02:33:31;8.37;;;7.17;;
8435;SDS011;4255;48.730;9.156;2023-09-07T02:35:57;7.33;;;6.73;;
8435;SDS011;4255;48.730;9.156;2023-09-07T02:38:23;7.93;;;6.47;;
8435;SDS011;4255;48.730;9.156;2023-09-07T02:40:49;7.47;;;6.20;;
8435;SDS011;4255;48.730;9.156;2023-09-07T02:43:14;6.30;;;5.67;;
8435;SDS011;4255;48.730;9.156;2023-09-07T02:45:41;7.93;;;6.50;;
8435;SDS011;4255;48.730;9.156;2023-09-07T02:48:10;7.70;;;7.00;;
8435;SDS011;4255;48.730;9.156;2023-09-07T02:50:35;9.50;;;8.60;;
8435;SDS011;4255;48.730;9.156;2023-09-07T02:53:01;8.50;;;6.83;;
8435;SDS011;4255;48.730;9.156;2023-09-07T02:55:28;8.50;;;7.60;;
8435;SDS011;4255;48.730;9.156;2023-09-07T02:57:53;9.10;;;8.20;;
8435;SDS011;4255;48.730;9.156;2023-09-07T03:00:21;9.07;;;8.23;;
8435;SDS011;4255;48.730;9.156;2023-09-07T03:02:47;7.60;;;6.90;;
8435;SDS011;4255;48.730;9.156;2023-09-07T03:05:13;8.40;;;7.60;;
8435;SDS011;4255;48.730;9.156;2023-09-07T03:07:44;10.80;;;7.33;;
8435;SDS011;4255;48.730;9.156;2023-09-07T03:10:10;9.10;;;7.40;;
8435;SDS011;4255;48.730;9.156;2023-09-07T03:12:36;7.40;;;6.80;;
8435;SDS011;4255;48.730;9.156;2023-09-07T03:15:02;7.90;;;7.10;;
8435;SDS011;4255;48.730;9.156;2023-09-07T03:17:28;6.87;;;6.27;;
8435;SDS011;4255;48.730;9.156;2023-09-07T03:19:54;10.07;;;6.53;;
8435;SDS011;4255;48.730;9.156;2023-09-07T03:22:20;6.83;;;6.23;;
8435;SDS011;4255;48.730;9.156;2023-09-07T03:24:48;7.50;;;6.80;;
8435;SDS011;4255;48.730;9.156;2023-09-07T03:27:15;8.00;;;7.30;;
8435;SDS011;4255;48.730;9.156;2023-09-07T03:29:41;8.10;;;7.30;;
8435;SDS011;4255;48.730;9.156;2023-09-07T03:32:06;7.50;;;6.90;;
8435;SDS011;4255;48.730;9.156;2023-09-07T03:34:33;7.87;;;7.07;;
8435;SDS011;4255;48.730;9.156;2023-09-07T03:36:59;9.03;;;7.40;;
8435;SDS011;4255;48.730;9.156;2023-09-07T03:39:25;8.20;;;7.40;;
8435;SDS011;4255;48.730;9.156;2023-09-07T03:41:51;9.33;;;8.33;;
8435;SDS011;4255;48.730;9.156;2023-09-07T03:44:17;7.73;;;6.97;;
8435;SDS011;4255;48.730;9.156;2023-09-07T03:46:42;10.57;;;7.20;;
8435;SDS011;4255;48.730;9.156;2023-09-07T03:49:08;7.77;;;7.00;;
8435;SDS011;4255;48.730;9.156;2023-09-07T03:51:33;9.27;;;7.40;;
8435;SDS011;4255;48.730;9.156;2023-09-07T03:53:59;8.13;;;7.33;;
8435;SDS011;4255;48.730;9.156;2023-09-07T03:56:26;8.67;;;6.87;;
8435;SDS011;4255;48.730;9.156;2023-09-07T03:58:51;10.37;;;8.10;;
8435;SDS011;4255;48.730;9.156;2023-09-07T04:01:17;8.20;;;7.40;;
8435;SDS011;4255;48.730;9.156;2023-09-07T04:03:42;7.90;;;6.97;;
8435;SDS011;4255;48.730;9.156;2023-09-07T04:06:08;8.60;;;7.70;;
8435;SDS011;4255;48.730;9.156;2023-09-07T04:08:34;7.97;;;7.27;;
8435;SDS011;4255;48.730;9.156;2023-09-07T04:11:04;10.27;;;7.70;;
8435;SDS011;4255;48.730;9.156;2023-09-07T04:13:30;7.73;;;6.93;;
8435;SDS011;4255;48.730;9.156;2023-09-07T04:15:56;9.63;;;6.93;;
8435;SDS011;4255;48.730;9.156;2023-09-07T04:18:22;8.60;;;7.80;;
8435;SDS011;4255;48.730;9.156;2023-09-07T04:20:47;8.33;;;7.40;;
8435;SDS011;4255;48.730;9.156;2023-09-07T04:23:13;8.53;;;7.73;;
8435;SDS011;4255;48.730;9.156;2023-09-07T04:25:38;10.07;;;8.00;;
8435;SDS011;4255;48.730;9.156;2023-09-07T04:28:04;8.90;;;8.00;;
8435;SDS011;4255;48.730;9.156;2023-09-07T04:30:31;9.10;;;7.80;;
8435;SDS011;4255;48.730;9.156;2023-09-07T04:32:57;9.70;;;7.90;;
8435;SDS011;4255;48.730;9.156;2023-09-07T04:35:29;10.30;;;8.13;;
8435;SDS011;4255;48.730;9.156;2023-09-07T04:37:57;14.30;;;9.50;;
8435;SDS011;4255;48.730;9.156;2023-09-07T04:40:23;9.57;;;8.67;;
8435;SDS011;4255;48.730;9.156;2023-09-07T04:42:50;9.33;;;8.20;;
8435;SDS011;4255;48.730;9.156;2023-09-07T04:45:15;15.77;;;9.20;;
8435;SDS011;4255;48.730;9.156;2023-09-07T04:47:41;13.70;;;9.17;;
8435;SDS011;4255;48.730;9.156;2023-09-07T04:50:07;11.00;;;8.73;;
8435;SDS011;4255;48.730;9.156;2023-09-07T04:52:33;16.23;;;10.40;;
8435;SDS011;4255;48.730;9.156;2023-09-07T04:54:59;12.27;;;8.87;;
8435;SDS011;4255;48.730;9.156;2023-09-07T04:57:25;12.00;;;9.23;;
8435;SDS011;4255;48.730;9.156;2023-09-07T04:59:51;11.73;;;10.50;;
8435;SDS011;4255;48.730;9.156;2023-09-07T05:02:17;10.00;;;9.00;;
8435;SDS011;4255;48.730;9.156;2023-09-07T05:04:42;15.87;;;8.70;;
8435;SDS011;4255;48.730;9.156;2023-09-07T05:07:08;9.90;;;8.70;;
8435;SDS011;4255;48.730;9.156;2023-09-07T05:09:34;12.83;;;10.20;;
8435;SDS011;4255;48.730;9.156;2023-09-07T05:12:00;13.00;;;9.97;;
8435;SDS011;4255;48.730;9.156;2023-09-07T05:14:25;11.00;;;9.87;;
8435;SDS011;4255;48.730;9.156;2023-09-07T05:16:51;12.53;;;10.73;;
8435;SDS011;4255;48.730;9.156;2023-09-07T05:19:17;11.30;;;10.10;;
8435;SDS011;4255;48.730;9.156;2023-09-07T05:21:43;16.03;;;8.60;;
8435;SDS011;4255;48.730;9.156;2023-09-07T05:24:08;15.50;;;10.70;;
8435;SDS011;4255;48.730;9.156;2023-09-07T05:26:34;11.80;;;10.60;;
8435;SDS011;4255;48.730;9.156;2023-09-07T05:29:00;13.20;;;11.03;;
8435;SDS011;4255;48.730;9.156;2023-09-07T05:31:25;10.50;;;9.50;;
8435;SDS011;4255;48.730;9.156;2023-09-07T05:33:51;12.87;;;11.40;;
8435;SDS011;4255;48.730;9.156;2023-09-07T05:36:17;17.40;;;11.10;;
8435;SDS011;4255;48.730;9.156;2023-09-07T05:38:43;11.13;;;9.43;;
8435;SDS011;4255;48.730;9.156;2023-09-07T05:41:09;12.00;;;9.67;;
8435;SDS011;4255;48.730;9.156;2023-09-07T05:43:34;12.03;;;10.80;;
8435;SDS011;4255;48.730;9.156;2023-09-07T05:46:00;35.83;;;15.03;;
8435;SDS011;4255;48.730;9.156;2023-09-07T05:48:26;13.50;;;10.83;;
8435;SDS011;4255;48.730;9.156;2023-09-07T05:50:51;14.60;;;10.30;;
8435;SDS011;4255;48.730;9.156;2023-09-07T05:53:18;12.40;;;10.47;;
8435;SDS011;4255;48.730;9.156;2023-09-07T05:55:45;13.27;;;10.90;;
8435;SDS011;4255;48.730;9.156;2023-09-07T05:58:12;13.17;;;9.97;;
8435;SDS011;4255;48.730;9.156;2023-09-07T06:00:39;17.87;;;11.20;;
8435;SDS011;4255;48.730;9.156;2023-09-07T06:03:06;15.13;;;10.60;;
8435;SDS011;4255;48.730;9.156;2023-09-07T06:05:39;12.17;;;10.07;;
8435;SDS011;4255;48.730;9.156;2023-09-07T06:08:06;12.60;;;9.90;;
8435;SDS011;4255;48.730;9.156;2023-09-07T06:10:32;13.03;;;11.20;;
8435;SDS011;4255;48.730;9.156;2023-09-07T06:12:58;13.40;;;10.60;;
8435;SDS011;4255;48.730;9.156;2023-09-07T06:15:24;12.93;;;10.47;;
8435;SDS011;4255;48.730;9.156;2023-09-07T06:17:50;10.80;;;9.70;;
8435;SDS011;4255;48.730;9.156;2023-09-07T06:20:16;13.17;;;9.50;;
8435;SDS011;4255;48.730;9.156;2023-09-07T06:22:44;14.13;;;9.70;;
8435;SDS011;4255;48.730;9.156;2023-09-07T06:25:10;16.07;;;10.53;;
8435;SDS011;4255;48.730;9.156;2023-09-07T06:27:36;12.70;;;9.20;;
8435;SDS011;4255;48.730;9.156;2023-09-07T06:30:03;11.50;;;9.17;;
8435;SDS011;4255;48.730;9.156;2023-09-07T06:32:31;10.53;;;8.97;;
8435;SDS011;4255;48.730;9.156;2023-09-07T06:34:57;9.70;;;8.70;;
8435;SDS011;4255;48.730;9.156;2023-09-07T06:37:23;10.07;;;9.03;;
8435;SDS011;4255;48.730;9.156;2023-09-07T06:39:53;17.93;;;9.37;;
8435;SDS011;4255;48.730;9.156;2023-09-07T06:42:19;11.13;;;9.80;;
8435;SDS011;4255;48.730;9.156;2023-09-07T06:44:44;10.20;;;9.20;;
8435;SDS011;4255;48.730;9.156;2023-09-07T06:47:10;9.33;;;8.40;;
8435;SDS011;4255;48.730;9.156;2023-09-07T06:49:37;9.60;;;8.60;;
8435;SDS011;4255;48.730;9.156;2023-09-07T06:52:03;9.67;;;8.50;;
8435;SDS011;4255;48.730;9.156;2023-09-07T06:54:30;9.30;;;8.30;;
8435;SDS011;4255;48.730;9.156;2023-09-07T06:56:55;9.00;;;8.20;;
8435;SDS011;4255;48.730;9.156;2023-09-07T06:59:21;11.03;;;9.93;;
8435;SDS011;4255;48.730;9.156;2023-09-07T07:01:47;13.70;;;9.50;;
8435;SDS011;4255;48.730;9.156;2023-09-07T07:04:12;13.43;;;9.20;;
8435;SDS011;4255;48.730;9.156;2023-09-07T07:06:38;10.07;;;8.97;;
8435;SDS011;4255;48.730;9.156;2023-09-07T07:09:04;9.83;;;8.83;;
8435;SDS011;4255;48.730;9.156;2023-09-07T07:11:30;13.10;;;9.03;;
8435;SDS011;4255;48.730;9.156;2023-09-07T07:13:56;9.37;;;8.47;;
8435;SDS011;4255;48.730;9.156;2023-09-07T07:16:22;10.73;;;9.53;;
8435;SDS011;4255;48.730;9.156;2023-09-07T07:18:48;10.70;;;9.60;;
8435;SDS011;4255;48.730;9.156;2023-09-07T07:21:15;9.10;;;8.30;;
8435;SDS011;4255;48.730;9.156;2023-09-07T07:23:41;12.57;;;9.47;;
8435;SDS011;4255;48.730;9.156;2023-09-07T07:26:07;10.93;;;9.50;;
8435;SDS011;4255;48.730;9.156;2023-09-07T07:28:34;9.43;;;8.63;;
8435;SDS011;4255;48.730;9.156;2023-09-07T07:31:06;13.43;;;9.67;;
8435;SDS011;4255;48.730;9.156;2023-09-07T07:33:34;11.57;;;9.77;;
8435;SDS011;4255;48.730;9.156;2023-09-07T07:36:00;11.17;;;9.33;;
8435;SDS011;4255;48.730;9.156;2023-09-07T07:38:26;9.63;;;8.57;;
8435;SDS011;4255;48.730;9.156;2023-09-07T07:40:52;10.27;;;9.20;;
8435;SDS011;4255;48.730;9.156;2023-09-07T07:43:18;10.37;;;8.00;;
8435;SDS011;4255;48.730;9.156;2023-09-07T07:45:43;11.40;;;8.37;;
8435;SDS011;4255;48.730;9.156;2023-09-07T07:48:09;10.33;;;8.27;;
8435;SDS011;4255;48.730;9.156;2023-09-07T07:50:38;10.30;;;8.40;;
8435;SDS011;4255;48.730;9.156;2023-09-07T07:53:07;9.00;;;8.20;;
8435;SDS011;4255;48.730;9.156;2023-09-07T07:55:42;13.27;;;8.37;;
8435;SDS011;4255;48.730;9.156;2023-09-07T07:58:08;10.33;;;8.50;;
8435;SDS011;4255;48.730;9.156;2023-09-07T08:00:34;11.17;;;8.63;;
8435;SDS011;4255;48.730;9.156;2023-09-07T08:03:01;9.10;;;8.30;;
8435;SDS011;4255;48.730;9.156;2023-09-07T08:05:28;9.40;;;8.20;;
8435;SDS011;4255;48.730;9.156;2023-09-07T08:07:55;8.80;;;7.80;;
8435;SDS011;4255;48.730;9.156;2023-09-07T08:10:21;15.50;;;8.63;;
8435;SDS011;4255;48.730;9.156;2023-09-07T08:12:47;10.27;;;8.37;;
8435;SDS011;4255;48.730;9.156;2023-09-07T08:15:13;9.53;;;8.40;;
8435;SDS011;4255;48.730;9.156;2023-09-07T08:17:39;9.30;;;7.97;;
8435;SDS011;4255;48.730;9.156;2023-09-07T08:20:05;9.60;;;8.70;;
8435;SDS011;4255;48.730;9.156;2023-09-07T08:22:33;8.13;;;7.40;;
8435;SDS011;4255;48.730;9.156;2023-09-07T08:25:01;10.37;;;9.47;;
8435;SDS011;4255;48.730;9.156;2023-09-07T08:27:27;9.47;;;8.43;;
8435;SDS011;4255;48.730;9.156;2023-09-07T08:29:53;11.47;;;9.63;;
8435;SDS011;4255;48.730;9.156;2023-09-07T08:32:19;8.87;;;8.03;;
8435;SDS011;4255;48.730;9.156;2023-09-07T08:34:45;8.60;;;7.87;;
8435;SDS011;4255;48.730;9.156;2023-09-07T08:37:12;10.23;;;9.20;;
8435;SDS011;4255;48.730;9.156;2023-09-07T08:39:38;9.60;;;8.70;;
8435;SDS011;4255;48.730;9.156;2023-09-07T08:42:07;9.00;;;8.20;;
8435;SDS011;4255;48.730;9.156;2023-09-07T08:44:33;9.30;;;8.40;;
8435;SDS011;4255;48.730;9.156;2023-09-07T08:47:02;9.03;;;8.30;;
8435;SDS011;4255;48.730;9.156;2023-09-07T08:49:29;9.43;;;8.23;;
8435;SDS011;4255;48.730;9.156;2023-09-07T08:51:58;10.20;;;9.03;;
8435;SDS011;4255;48.730;9.156;2023-09-07T08:54:24;8.60;;;7.80;;
8435;SDS011;4255;48.730;9.156;2023-09-07T08:56:51;8.77;;;7.90;;
8435;SDS011;4255;48.730;9.156;2023-09-07T08:59:18;12.80;;;7.87;;
8435;SDS011;4255;48.730;9.156;2023-09-07T09:01:43;10.40;;;8.43;;
8435;SDS011;4255;48.730;9.156;2023-09-07T09:04:09;9.83;;;7.93;;
8435;SDS011;4255;48.730;9.156;2023-09-07T09:06:35;8.77;;;7.80;;
8435;SDS011;4255;48.730;9.156;2023-09-07T09:09:00;8.67;;;7.87;;
8435;SDS011;4255;48.730;9.156;2023-09-07T09:11:30;9.53;;;8.00;;
8435;SDS011;4255;48.730;9.156;2023-09-07T09:13:55;9.80;;;7.83;;
8435;SDS011;4255;48.730;9.156;2023-09-07T09:16:21;9.10;;;8.30;;
8435;SDS011;4255;48.730;9.156;2023-09-07T09:18:53;9.80;;;8.90;;
8435;SDS011;4255;48.730;9.156;2023-09-07T09:21:22;14.90;;;7.80;;
8435;SDS011;4255;48.730;9.156;2023-09-07T09:23:49;10.80;;;7.00;;
8435;SDS011;4255;48.730;9.156;2023-09-07T09:26:17;9.63;;;7.43;;
8435;SDS011;4255;48.730;9.156;2023-09-07T09:28:43;10.17;;;7.17;;
8435;SDS011;4255;48.730;9.156;2023-09-07T09:31:12;8.23;;;7.53;;
8435;SDS011;4255;48.730;9.156;2023-09-07T09:33:39;9.67;;;7.40;;
8435;SDS011;4255;48.730;9.156;2023-09-07T09:36:12;11.93;;;7.70;;
8435;SDS011;4255;48.730;9.156;2023-09-07T09:38:38;9.50;;;8.50;;
8435;SDS011;4255;48.730;9.156;2023-09-07T09:41:05;8.60;;;7.83;;
8435;SDS011;4255;48.730;9.156;2023-09-07T09:43:31;8.10;;;7.47;;
8435;SDS011;4255;48.730;9.156;2023-09-07T09:45:57;9.53;;;8.07;;
8435;SDS011;4255;48.730;9.156;2023-09-07T09:48:24;12.33;;;9.70;;
8435;SDS011;4255;48.730;9.156;2023-09-07T09:50:52;9.63;;;8.73;;
8435;SDS011;4255;48.730;9.156;2023-09-07T09:53:18;11.00;;;8.67;;
8435;SDS011;4255;48.730;9.156;2023-09-07T09:55:46;8.90;;;7.77;;
8435;SDS011;4255;48.730;9.156;2023-09-07T09:58:15;12.07;;;7.60;;
8435;SDS011;4255;48.730;9.156;2023-09-07T10:00:45;8.57;;;7.80;;
8435;SDS011;4255;48.730;9.156;2023-09-07T10:03:37;8.77;;;7.97;;
8435;SDS011;4255;48.730;9.156;2023-09-07T10:06:11;8.33;;;7.63;;
8435;SDS011;4255;48.730;9.156;2023-09-07T10:08:59;9.77;;;8.30;;
8435;SDS011;4255;48.730;9.156;2023-09-07T10:11:35;10.73;;;8.03;;
8435;SDS011;4255;48.730;9.156;2023-09-07T10:14:04;8.60;;;7.73;;
8435;SDS011;4255;48.730;9.156;2023-09-07T10:16:45;11.20;;;8.07;;
8435;SDS011;4255;48.730;9.156;2023-09-07T10:19:21;9.87;;;8.00;;
8435;SDS011;4255;48.730;9.156;2023-09-07T10:21:48;9.30;;;8.40;;
8435;SDS011;4255;48.730;9.156;2023-09-07T10:27:04;15.47;;;7.80;;
8435;SDS011;4255;48.730;9.156;2023-09-07T10:29:41;8.07;;;7.10;;
8435;SDS011;4255;48.730;9.156;2023-09-07T10:32:11;9.47;;;8.53;;
8435;SDS011;4255;48.730;9.156;2023-09-07T10:34:39;11.83;;;7.17;;
8435;SDS011;4255;48.730;9.156;2023-09-07T10:37:09;8.77;;;7.80;;
8435;SDS011;4255;48.730;9.156;2023-09-07T10:39:37;8.97;;;7.20;;
8435;SDS011;4255;48.730;9.156;2023-09-07T10:42:31;8.87;;;8.10;;
8435;SDS011;4255;48.730;9.156;2023-09-07T10:45:07;10.43;;;8.10;;
8435;SDS011;4255;48.730;9.156;2023-09-07T10:47:47;9.73;;;8.17;;
8435;SDS011;4255;48.730;9.156;2023-09-07T10:50:12;9.63;;;8.73;;
8435;SDS011;4255;48.730;9.156;2023-09-07T10:52:41;8.70;;;7.90;;
8435;SDS011;4255;48.730;9.156;2023-09-07T10:55:10;10.40;;;7.97;;
8435;SDS011;4255;48.730;9.156;2023-09-07T10:57:42;18.00;;;7.63;;
8435;SDS011;4255;48.730;9.156;2023-09-07T11:00:10;9.73;;;8.17;;
8435;SDS011;4255;48.730;9.156;2023-09-07T11:02:40;9.37;;;7.17;;
8435;SDS011;4255;48.730;9.156;2023-09-07T11:05:06;8.87;;;7.97;;
8435;SDS011;4255;48.730;9.156;2023-09-07T11:07:33;8.60;;;7.20;;
8435;SDS011;4255;48.730;9.156;2023-09-07T11:09:59;8.87;;;7.97;;
8435;SDS011;4255;48.730;9.156;2023-09-07T11:12:25;8.43;;;7.47;;
8435;SDS011;4255;48.730;9.156;2023-09-07T11:14:51;8.33;;;6.80;;
8435;SDS011;4255;48.730;9.156;2023-09-07T11:17:25;8.00;;;7.30;;
8435;SDS011;4255;48.730;9.156;2023-09-07T11:19:53;8.53;;;7.73;;
8435;SDS011;4255;48.730;9.156;2023-09-07T11:22:19;8.30;;;7.33;;
8435;SDS011;4255;48.730;9.156;2023-09-07T11:24:45;9.27;;;8.27;;
8435;SDS011;4255;48.730;9.156;2023-09-07T11:27:11;9.53;;;7.80;;
8435;SDS011;4255;48.730;9.156;2023-09-07T11:29:37;9.67;;;7.50;;
8435;SDS011;4255;48.730;9.156;2023-09-07T11:32:07;8.47;;;7.67;;
8435;SDS011;4255;48.730;9.156;2023-09-07T11:34:34;8.10;;;7.30;;
8435;SDS011;4255;48.730;9.156;2023-09-07T11:37:02;8.77;;;8.00;;
8435;SDS011;4255;48.730;9.156;2023-09-07T11:39:28;7.97;;;7.23;;
8435;SDS011;4255;48.730;9.156;2023-09-07T11:41:54;8.33;;;7.57;;
8435;SDS011;4255;48.730;9.156;2023-09-07T11:44:20;8.30;;;7.60;;
8435;SDS011;4255;48.730;9.156;2023-09-07T11:46:46;10.47;;;7.53;;
8435;SDS011;4255;48.730;9.156;2023-09-07T11:49:12;7.63;;;6.93;;
8435;SDS011;4255;48.730;9.156;2023-09-07T11:51:38;8.60;;;7.77;;
8435;SDS011;4255;48.730;9.156;2023-09-07T11:54:04;9.10;;;8.30;;
8435;SDS011;4255;48.730;9.156;2023-09-07T11:56:30;8.20;;;7.10;;
8435;SDS011;4255;48.730;9.156;2023-09-07T11:58:56;8.10;;;7.10;;
8435;SDS011;4255;48.730;9.156;2023-09-07T12:01:23;8.20;;;7.40;;
8435;SDS011;4255;48.730;9.156;2023-09-07T12:03:48;7.23;;;6.53;;
8435;SDS011;4255;48.730;9.156;2023-09-07T12:06:14;7.80;;;7.10;;
8435;SDS011;4255;48.730;9.156;2023-09-07T12:08:57;8.70;;;7.83;;
8435;SDS011;4255;48.730;9.156;2023-09-07T12:11:25;7.70;;;7.00;;
8435;SDS011;4255;48.730;9.156;2023-09-07T12:13:50;7.70;;;6.73;;
8435;SDS011;4255;48.730;9.156;2023-09-07T12:16:17;10.97;;;6.77;;
8435;SDS011;4255;48.730;9.156;2023-09-07T12:18:42;8.43;;;7.67;;
8435;SDS011;4255;48.730;9.156;2023-09-07T12:21:08;7.40;;;6.70;;
8435;SDS011;4255;48.730;9.156;2023-09-07T12:23:33;8.70;;;7.90;;
8435;SDS011;4255;48.730;9.156;2023-09-07T12:26:00;8.20;;;7.50;;
8435;SDS011;4255;48.730;9.156;2023-09-07T12:28:26;8.17;;;7.37;;
8435;SDS011;4255;48.730;9.156;2023-09-07T12:30:52;7.37;;;6.77;;
8435;SDS011;4255;48.730;9.156;2023-09-07T12:33:18;9.27;;;6.87;;
8435;SDS011;4255;48.730;9.156;2023-09-07T12:35:43;8.60;;;7.87;;
8435;SDS011;4255;48.730;9.156;2023-09-07T12:38:10;8.70;;;7.37;;
8435;SDS011;4255;48.730;9.156;2023-09-07T12:40:38;7.40;;;6.70;;
8435;SDS011;4255;48.730;9.156;2023-09-07T12:43:04;8.23;;;6.13;;
8435;SDS011;4255;48.730;9.156;2023-09-07T12:45:29;8.13;;;7.43;;
8435;SDS011;4255;48.730;9.156;2023-09-07T12:47:55;7.83;;;7.13;;
8435;SDS011;4255;48.730;9.156;2023-09-07T12:50:21;7.30;;;6.70;;
8435;SDS011;4255;48.730;9.156;2023-09-07T12:52:48;7.43;;;6.83;;
8435;SDS011;4255;48.730;9.156;2023-09-07T12:55:14;8.07;;;7.37;;
8435;SDS011;4255;48.730;9.156;2023-09-07T12:57:39;13.30;;;6.50;;
8435;SDS011;4255;48.730;9.156;2023-09-07T13:00:05;7.07;;;6.57;;
8435;SDS011;4255;48.730;9.156;2023-09-07T13:02:31;7.27;;;6.67;;
8435;SDS011;4255;48.730;9.156;2023-09-07T13:04:58;6.70;;;6.20;;
8435;SDS011;4255;48.730;9.156;2023-09-07T13:07:23;7.50;;;6.37;;
8435;SDS011;4255;48.730;9.156;2023-09-07T13:09:49;7.57;;;6.83;;
8435;SDS011;4255;48.730;9.156;2023-09-07T13:12:15;7.30;;;6.07;;
8435;SDS011;4255;48.730;9.156;2023-09-07T13:14:40;7.10;;;6.40;;
8435;SDS011;4255;48.730;9.156;2023-09-07T13:17:09;6.17;;;5.77;;
8435;SDS011;4255;48.730;9.156;2023-09-07T13:19:37;6.40;;;5.93;;
8435;SDS011;4255;48.730;9.156;2023-09-07T13:22:03;7.07;;;6.57;;
8435;SDS011;4255;48.730;9.156;2023-09-07T13:24:28;6.97;;;6.37;;
8435;SDS011;4255;48.730;9.156;2023-09-07T13:26:54;7.37;;;6.67;;
8435;SDS011;4255;48.730;9.156;2023-09-07T13:29:20;6.60;;;5.97;;
8435;SDS011;4255;48.730;9.156;2023-09-07T13:31:46;8.20;;;6.20;;
8435;SDS011;4255;48.730;9.156;2023-09-07T13:34:12;6.77;;;6.20;;
8435;SDS011;4255;48.730;9.156;2023-09-07T13:36:37;6.90;;;6.20;;
8435;SDS011;4255;48.730;9.156;2023-09-07T13:39:03;6.07;;;5.67;;
8435;SDS011;4255;48.730;9.156;2023-09-07T13:41:29;7.30;;;6.00;;
8435;SDS011;4255;48.730;9.156;2023-09-07T13:43:54;6.60;;;6.00;;
8435;SDS011;4255;48.730;9.156;2023-09-07T13:46:21;7.37;;;6.77;;
8435;SDS011;4255;48.730;9.156;2023-09-07T13:48:48;6.17;;;5.70;;
8435;SDS011;4255;48.730;9.156;2023-09-07T13:51:13;5.83;;;5.37;;
8435;SDS011;4255;48.730;9.156;2023-09-07T13:53:39;7.43;;;6.40;;
8435;SDS011;4255;48.730;9.156;2023-09-07T13:56:05;6.10;;;5.60;;
8435;SDS011;4255;48.730;9.156;2023-09-07T13:58:30;7.10;;;6.40;;
8435;SDS011;4255;48.730;9.156;2023-09-07T14:00:56;6.60;;;5.20;;
8435;SDS011;4255;48.730;9.156;2023-09-07T14:03:21;6.57;;;5.90;;
8435;SDS011;4255;48.730;9.156;2023-09-07T14:05:47;7.27;;;6.10;;
8435;SDS011;4255;48.730;9.156;2023-09-07T14:08:13;6.90;;;5.93;;
8435;SDS011;4255;48.730;9.156;2023-09-07T14:10:38;10.70;;;5.57;;
8435;SDS011;4255;48.730;9.156;2023-09-07T14:13:04;9.80;;;5.70;;
8435;SDS011;4255;48.730;9.156;2023-09-07T14:15:29;6.73;;;6.03;;
8435;SDS011;4255;48.730;9.156;2023-09-07T14:17:56;6.77;;;6.17;;
8435;SDS011;4255;48.730;9.156;2023-09-07T14:20:22;5.80;;;5.30;;
8435;SDS011;4255;48.730;9.156;2023-09-07T14:22:47;5.77;;;5.27;;
8435;SDS011;4255;48.730;9.156;2023-09-07T14:25:13;6.13;;;5.63;;
8435;SDS011;4255;48.730;9.156;2023-09-07T14:27:41;7.10;;;5.13;;
8435;SDS011;4255;48.730;9.156;2023-09-07T14:30:07;6.43;;;5.93;;
8435;SDS011;4255;48.730;9.156;2023-09-07T14:32:33;6.20;;;5.60;;
8435;SDS011;4255;48.730;9.156;2023-09-07T14:34:58;5.40;;;5.00;;
8435;SDS011;4255;48.730;9.156;2023-09-07T14:37:24;5.20;;;4.80;;
8435;SDS011;4255;48.730;9.156;2023-09-07T14:51:57;6.77;;;5.63;;
8435;SDS011;4255;48.730;9.156;2023-09-07T14:54:23;5.73;;;5.17;;
8435;SDS011;4255;48.730;9.156;2023-09-07T14:56:49;6.47;;;5.77;;
8435;SDS011;4255;48.730;9.156;2023-09-07T14:59:14;8.10;;;5.83;;
8435;SDS011;4255;48.730;9.156;2023-09-07T15:01:40;5.83;;;5.33;;
8435;SDS011;4255;48.730;9.156;2023-09-07T15:04:06;5.83;;;5.33;;
8435;SDS011;4255;48.730;9.156;2023-09-07T15:06:31;7.00;;;5.70;;
8435;SDS011;4255;48.730;9.156;2023-09-07T15:08:58;6.13;;;5.63;;
8435;SDS011;4255;48.730;9.156;2023-09-07T15:11:24;9.73;;;7.43;;
8435;SDS011;4255;48.730;9.156;2023-09-07T15:13:50;12.07;;;6.50;;
8435;SDS011;4255;48.730;9.156;2023-09-07T15:16:18;6.00;;;5.33;;
8435;SDS011;4255;48.730;9.156;2023-09-07T15:18:44;6.50;;;5.90;;
8435;SDS011;4255;48.730;9.156;2023-09-07T15:21:09;9.03;;;6.63;;
8435;SDS011;4255;48.730;9.156;2023-09-07T15:23:35;6.00;;;5.50;;
8435;SDS011;4255;48.730;9.156;2023-09-07T15:26:01;6.60;;;6.00;;